createdAt,value
2019-06-10T00:01:31.000Z,28.1
2019-06-10T00:03:31.000Z,28.1
2019-06-10T00:05:30.000Z,28.1
2019-06-10T00:07:30.000Z,28.2
2019-06-10T00:08:30.000Z,28.1
2019-06-10T00:10:31.000Z,28.1
2019-06-10T00:12:31.000Z,28.1
2019-06-10T00:14:31.000Z,28.2
2019-06-10T00:16:30.000Z,28.2
2019-06-10T00:18:30.000Z,28.2
2019-06-10T00:19:31.000Z,28.1
2019-06-10T00:21:30.000Z,28.1
2019-06-10T00:23:32.000Z,28.1
2019-06-10T00:25:31.000Z,28.2
2019-06-10T00:27:31.000Z,28.2
2019-06-10T00:29:31.000Z,28.2
2019-06-10T00:31:31.000Z,28.2
2019-06-10T00:33:29.000Z,28.2
2019-06-10T00:34:30.000Z,28.2
2019-06-10T00:35:31.000Z,28.2
2019-06-10T00:37:31.000Z,28.2
2019-06-10T00:39:30.000Z,28.2
2019-06-10T00:40:31.000Z,28.1
2019-06-10T00:42:31.000Z,28.1
2019-06-10T00:44:31.000Z,28.1
2019-06-10T00:46:31.000Z,28.2
2019-06-10T00:48:32.000Z,28.2
2019-06-10T00:50:30.000Z,28.2
2019-06-10T00:52:30.000Z,28.2
2019-06-10T00:54:29.000Z,28.2
2019-06-10T00:55:31.000Z,28.2
2019-06-10T00:57:31.000Z,28.1
2019-06-10T00:59:30.000Z,28.1
2019-06-10T01:01:30.000Z,28.2
2019-06-10T01:03:30.000Z,28.2
2019-06-10T01:05:30.000Z,28.2
2019-06-10T01:07:29.000Z,28.2
2019-06-10T01:08:29.000Z,28.2
2019-06-10T01:09:30.000Z,28.1
2019-06-10T01:11:29.000Z,28.1
2019-06-10T01:12:29.000Z,28.1
2019-06-10T01:13:30.000Z,28.1
2019-06-10T01:15:30.000Z,28.1
2019-06-10T01:17:30.000Z,28.1
2019-06-10T01:19:30.000Z,28.1
2019-06-10T01:21:30.000Z,28.1
2019-06-10T01:23:30.000Z,28.2
2019-06-10T01:25:30.000Z,28.2
2019-06-10T01:27:31.000Z,28.2
2019-06-10T01:29:30.000Z,28.2
2019-06-10T01:31:29.000Z,28.2
2019-06-10T01:32:30.000Z,28.1
2019-06-10T01:34:30.000Z,28.1
2019-06-10T01:36:31.000Z,28.1
2019-06-10T01:38:31.000Z,28.1
2019-06-10T01:40:30.000Z,28.2
2019-06-10T01:42:29.000Z,28.2
2019-06-10T01:43:29.000Z,28.2
2019-06-10T01:44:30.000Z,28.1
2019-06-10T01:46:31.000Z,28.1
2019-06-10T01:48:43.000Z,28.1
2019-06-10T01:50:29.000Z,28
2019-06-10T01:51:30.000Z,28
2019-06-10T01:53:30.000Z,28
2019-06-10T01:55:30.000Z,28
2019-06-10T01:57:30.000Z,28
2019-06-10T01:59:30.000Z,28
2019-06-10T02:01:29.000Z,28.1
2019-06-10T02:03:30.000Z,28.1
2019-06-10T02:05:30.000Z,28.1
2019-06-10T02:07:31.000Z,28.1
2019-06-10T02:09:30.000Z,28.1
2019-06-10T02:11:30.000Z,28.1
2019-06-10T02:13:31.000Z,28.1
2019-06-10T02:15:30.000Z,28
2019-06-10T02:17:28.000Z,28
2019-06-10T02:18:29.000Z,28
2019-06-10T02:19:30.000Z,28
2019-06-10T02:21:30.000Z,28
2019-06-10T02:23:31.000Z,28
2019-06-10T02:25:29.000Z,28
2019-06-10T02:27:30.000Z,28
2019-06-10T02:29:29.000Z,28.1
2019-06-10T02:31:36.000Z,28.1
2019-06-10T02:33:35.000Z,28
2019-06-10T02:35:29.000Z,27.9
2019-06-10T02:36:34.000Z,27.8
2019-06-10T02:38:29.000Z,27.7
2019-06-10T02:39:37.000Z,27.7
2019-06-10T02:41:29.000Z,27.6
2019-06-10T02:42:34.000Z,27.6
2019-06-10T02:43:35.000Z,27.6
2019-06-10T02:44:36.000Z,27.6
2019-06-10T02:46:29.000Z,27.5
2019-06-10T02:47:35.000Z,27.5
2019-06-10T02:49:29.000Z,27.5
2019-06-10T02:50:34.000Z,27.5
2019-06-10T02:52:29.000Z,27.5
2019-06-10T02:53:34.000Z,27.4
2019-06-10T02:55:29.000Z,27.4
2019-06-10T02:57:38.000Z,27.4
2019-06-10T02:59:29.000Z,27.4
2019-06-10T03:00:39.000Z,27.4
2019-06-10T03:02:29.000Z,27.4
2019-06-10T03:03:42.000Z,27.4
2019-06-10T03:05:29.000Z,27.5
2019-06-10T03:06:35.000Z,27.5
2019-06-10T03:08:29.000Z,27.4
2019-06-10T03:09:34.000Z,27.4
2019-06-10T03:10:35.000Z,27.4
2019-06-10T03:12:44.000Z,27.4
2019-06-10T03:13:44.000Z,27.5
2019-06-10T03:15:31.000Z,27.7
2019-06-10T03:17:31.000Z,27.8
2019-06-10T03:19:44.000Z,27.9
2019-06-10T03:21:29.000Z,27.9
2019-06-10T03:22:44.000Z,27.8
2019-06-10T03:24:29.000Z,27.8
2019-06-10T03:25:44.000Z,27.8
2019-06-10T03:27:32.000Z,27.9
2019-06-10T03:29:44.000Z,28
2019-06-10T03:31:40.000Z,28
2019-06-10T03:33:29.000Z,28
2019-06-10T03:34:39.000Z,28
2019-06-10T03:35:44.000Z,28
2019-06-10T03:37:44.000Z,28
2019-06-10T03:39:29.000Z,28
2019-06-10T03:40:44.000Z,28
2019-06-10T03:42:31.000Z,28
2019-06-10T03:44:44.000Z,28
2019-06-10T03:46:44.000Z,28
2019-06-10T03:48:29.000Z,28
2019-06-10T03:49:31.000Z,28
2019-06-10T03:50:31.000Z,28
2019-06-10T03:51:44.000Z,28
2019-06-10T03:53:44.000Z,28.1
2019-06-10T03:55:44.000Z,28.1
2019-06-10T03:57:44.000Z,28.2
2019-06-10T03:59:29.000Z,28.1
2019-06-10T04:00:32.000Z,28.1
2019-06-10T04:01:44.000Z,28
2019-06-10T04:03:44.000Z,28
2019-06-10T04:04:44.000Z,28
2019-06-10T04:05:45.000Z,28.1
2019-06-10T04:07:29.000Z,28.2
2019-06-10T04:08:32.000Z,28.2
2019-06-10T04:09:45.000Z,28.1
2019-06-10T04:11:30.000Z,28.2
2019-06-10T04:12:32.000Z,28.1
2019-06-10T04:14:30.000Z,28.1
2019-06-10T04:15:32.000Z,28
2019-06-10T04:17:44.000Z,28
2019-06-10T04:19:30.000Z,28
2019-06-10T04:20:44.000Z,27.9
2019-06-10T04:22:44.000Z,27.9
2019-06-10T04:24:30.000Z,28
2019-06-10T04:25:32.000Z,28
2019-06-10T04:27:44.000Z,28
2019-06-10T04:29:44.000Z,28
2019-06-10T04:31:44.000Z,28.1
2019-06-10T04:33:30.000Z,28.1
2019-06-10T04:34:33.000Z,28
2019-06-10T04:36:45.000Z,28
2019-06-10T04:38:30.000Z,28
2019-06-10T04:39:44.000Z,28
2019-06-10T04:41:30.000Z,28
2019-06-10T04:43:32.000Z,28
2019-06-10T04:44:45.000Z,28
2019-06-10T04:46:29.000Z,28
2019-06-10T04:47:44.000Z,28
2019-06-10T04:49:30.000Z,28
2019-06-10T04:50:41.000Z,28
2019-06-10T04:51:44.000Z,28
2019-06-10T04:53:30.000Z,28
2019-06-10T04:54:44.000Z,28
2019-06-10T04:56:30.000Z,28.1
2019-06-10T04:57:32.000Z,28.1
2019-06-10T04:59:30.000Z,28.1
2019-06-10T05:00:32.000Z,28
2019-06-10T05:01:45.000Z,28
2019-06-10T05:03:30.000Z,28.1
2019-06-10T05:05:32.000Z,28.1
2019-06-10T05:07:36.000Z,28.1
2019-06-10T05:08:44.000Z,28.1
2019-06-10T05:10:44.000Z,28.2
2019-06-10T05:12:32.000Z,28.3
2019-06-10T05:13:44.000Z,28.4
2019-06-10T05:15:29.000Z,28.5
2019-06-10T05:16:31.000Z,28.5
2019-06-10T05:17:33.000Z,28.5
2019-06-10T05:19:29.000Z,28.3
2019-06-10T05:20:44.000Z,28.2
2019-06-10T05:22:29.000Z,28.1
2019-06-10T05:23:32.000Z,28.1
2019-06-10T05:25:32.000Z,28.1
2019-06-10T05:27:32.000Z,28.1
2019-06-10T05:29:30.000Z,28.1
2019-06-10T05:30:32.000Z,28.1
2019-06-10T05:31:34.000Z,28.1
2019-06-10T05:33:29.000Z,28.1
2019-06-10T05:34:34.000Z,28
2019-06-10T05:36:29.000Z,28.1
2019-06-10T05:37:33.000Z,28.1
2019-06-10T05:39:29.000Z,28
2019-06-10T05:40:33.000Z,28
2019-06-10T05:42:35.000Z,28
2019-06-10T05:44:44.000Z,28
2019-06-10T05:46:29.000Z,28.1
2019-06-10T05:47:33.000Z,28.1
2019-06-10T05:49:33.000Z,28.1
2019-06-10T05:51:29.000Z,28.1
2019-06-10T05:52:32.000Z,28.1
2019-06-10T05:53:33.000Z,28.1
2019-06-10T05:54:33.000Z,28.1
2019-06-10T05:55:33.000Z,28.1
2019-06-10T05:57:29.000Z,28.2
2019-06-10T05:59:31.000Z,28.3
2019-06-10T06:00:33.000Z,28.3
2019-06-10T06:01:44.000Z,28.3
2019-06-10T06:03:44.000Z,28.5
2019-06-10T06:05:29.000Z,28.6
2019-06-10T06:06:33.000Z,28.6
2019-06-10T06:08:29.000Z,28.6
2019-06-10T06:09:34.000Z,28.6
2019-06-10T06:11:32.000Z,28.6
2019-06-10T06:12:33.000Z,28.6
2019-06-10T06:13:33.000Z,28.6
2019-06-10T06:14:44.000Z,28.6
2019-06-10T06:16:29.000Z,28.6
2019-06-10T06:17:31.000Z,28.6
2019-06-10T06:18:44.000Z,28.6
2019-06-10T06:20:29.000Z,28.6
2019-06-10T06:21:38.000Z,28.6
2019-06-10T06:23:29.000Z,28.6
2019-06-10T06:24:32.000Z,28.5
2019-06-10T06:25:35.000Z,28.5
2019-06-10T06:27:29.000Z,28.5
2019-06-10T06:28:33.000Z,28.5
2019-06-10T06:30:29.000Z,28.5
2019-06-10T06:32:32.000Z,28.5
2019-06-10T06:33:33.000Z,28.5
2019-06-10T06:35:29.000Z,28.5
2019-06-10T06:36:32.000Z,28.5
2019-06-10T06:37:35.000Z,28.5
2019-06-10T06:39:29.000Z,28.5
2019-06-10T06:40:33.000Z,28.5
2019-06-10T06:42:32.000Z,28.5
2019-06-10T06:43:34.000Z,28.4
2019-06-10T06:45:44.000Z,28.4
2019-06-10T06:47:29.000Z,28.5
2019-06-10T06:48:44.000Z,28.5
2019-06-10T06:50:29.000Z,28.6
2019-06-10T06:51:44.000Z,28.6
2019-06-10T06:53:41.000Z,28.7
2019-06-10T06:55:29.000Z,28.7
2019-06-10T06:56:34.000Z,28.7
2019-06-10T06:58:29.000Z,28.6
2019-06-10T06:59:32.000Z,28.6
2019-06-10T07:00:44.000Z,28.6
2019-06-10T07:02:44.000Z,28.6
2019-06-10T07:03:44.000Z,28.7
2019-06-10T07:05:31.000Z,28.8
2019-06-10T07:07:29.000Z,28.8
2019-06-10T07:08:32.000Z,28.7
2019-06-10T07:10:29.000Z,28.7
2019-06-10T07:11:32.000Z,28.7
2019-06-10T07:13:29.000Z,28.7
2019-06-10T07:14:34.000Z,28.7
2019-06-10T07:16:29.000Z,28.7
2019-06-10T07:17:31.000Z,28.7
2019-06-10T07:18:32.000Z,28.7
2019-06-10T07:20:32.000Z,28.7
2019-06-10T07:21:44.000Z,28.7
2019-06-10T07:23:44.000Z,28.8
2019-06-10T07:25:33.000Z,28.9
2019-06-10T07:27:44.000Z,28.9
2019-06-10T07:29:29.000Z,28.9
2019-06-10T07:30:34.000Z,29
2019-06-10T07:32:44.000Z,29
2019-06-10T07:33:44.000Z,29.1
2019-06-10T07:35:29.000Z,29.2
2019-06-10T07:36:32.000Z,29.1
2019-06-10T07:38:29.000Z,29.1
2019-06-10T07:39:44.000Z,29.1
2019-06-10T07:41:29.000Z,29.1
2019-06-10T07:42:44.000Z,29.1
2019-06-10T07:44:29.000Z,29.1
2019-06-10T07:45:33.000Z,29.1
2019-06-10T07:46:44.000Z,29.1
2019-06-10T07:48:44.000Z,29.1
2019-06-10T07:50:44.000Z,29.1
2019-06-10T07:52:44.000Z,29.1
2019-06-10T07:54:44.000Z,29.1
2019-06-10T07:56:36.000Z,29.1
2019-06-10T07:57:44.000Z,29.1
2019-06-10T07:59:29.000Z,29.2
2019-06-10T08:00:44.000Z,29.3
2019-06-10T08:02:29.000Z,29.4
2019-06-10T08:03:44.000Z,29.5
2019-06-10T08:05:29.000Z,29.6
2019-06-10T08:06:44.000Z,29.7
2019-06-10T08:08:29.000Z,29.9
2019-06-10T08:09:44.000Z,29.9
2019-06-10T08:11:44.000Z,30.1
2019-06-10T08:13:29.000Z,30.1
2019-06-10T08:14:32.000Z,30.1
2019-06-10T08:16:29.000Z,30.2
2019-06-10T08:17:44.000Z,30.2
2019-06-10T08:18:44.000Z,30.2
2019-06-10T08:20:32.000Z,30.3
2019-06-10T08:22:34.000Z,30.4
2019-06-10T08:24:32.000Z,30.4
2019-06-10T08:26:29.000Z,30.4
2019-06-10T08:27:44.000Z,30.4
2019-06-10T08:29:29.000Z,30.1
2019-06-10T08:30:32.000Z,30
2019-06-10T08:32:44.000Z,29.8
2019-06-10T08:34:29.000Z,29.6
2019-06-10T08:35:41.000Z,29.5
2019-06-10T08:36:44.000Z,29.4
2019-06-10T08:37:44.000Z,29.5
2019-06-10T08:39:44.000Z,29.5
2019-06-10T08:41:29.000Z,29.4
2019-06-10T08:42:31.000Z,29.4
2019-06-10T08:43:44.000Z,29.3
2019-06-10T08:45:44.000Z,29.3
2019-06-10T08:46:44.000Z,29.3
2019-06-10T08:48:44.000Z,29.2
2019-06-10T08:50:44.000Z,29.1
2019-06-10T08:52:29.000Z,29
2019-06-10T08:53:32.000Z,29
2019-06-10T08:55:32.000Z,28.9
2019-06-10T08:57:44.000Z,28.7
2019-06-10T08:58:44.000Z,28.7
2019-06-10T09:00:44.000Z,28.7
2019-06-10T09:02:29.000Z,28.7
2019-06-10T09:03:31.000Z,28.6
2019-06-10T09:04:44.000Z,28.6
2019-06-10T09:06:29.000Z,28.7
2019-06-10T09:07:31.000Z,28.7
2019-06-10T09:08:31.000Z,28.8
2019-06-10T09:09:44.000Z,28.8
2019-06-10T09:11:32.000Z,28.9
2019-06-10T09:12:35.000Z,28.9
2019-06-10T09:14:31.000Z,28.8
2019-06-10T09:16:29.000Z,28.8
2019-06-10T09:17:33.000Z,28.7
2019-06-10T09:18:44.000Z,28.7
2019-06-10T09:20:44.000Z,28.7
2019-06-10T09:21:44.000Z,28.7
2019-06-10T09:23:44.000Z,28.7
2019-06-10T09:25:29.000Z,28.7
2019-06-10T09:26:44.000Z,28.6
2019-06-10T09:28:29.000Z,28.6
2019-06-10T09:29:32.000Z,28.6
2019-06-10T09:30:44.000Z,28.6
2019-06-10T09:31:44.000Z,28.6
2019-06-10T09:33:29.000Z,28.6
2019-06-10T09:35:31.000Z,28.6
2019-06-10T09:36:31.000Z,28.6
2019-06-10T09:37:31.000Z,28.6
2019-06-10T09:38:32.000Z,28.6
2019-06-10T09:40:29.000Z,28.7
2019-06-10T09:42:44.000Z,28.6
2019-06-10T09:44:44.000Z,28.6
2019-06-10T09:45:44.000Z,28.6
2019-06-10T09:47:44.000Z,28.6
2019-06-10T09:48:44.000Z,28.6
2019-06-10T09:50:44.000Z,28.7
2019-06-10T09:52:29.000Z,28.7
2019-06-10T09:53:40.000Z,28.6
2019-06-10T09:54:44.000Z,28.6
2019-06-10T09:56:44.000Z,28.6
2019-06-10T09:58:29.000Z,28.6
2019-06-10T09:59:31.000Z,28.5
2019-06-10T10:00:44.000Z,28.6
2019-06-10T10:02:44.000Z,28.6
2019-06-10T10:04:29.000Z,28.7
2019-06-10T10:05:44.000Z,28.6
2019-06-10T10:07:29.000Z,28.6
2019-06-10T10:08:31.000Z,28.6
2019-06-10T10:09:35.000Z,28.6
2019-06-10T10:11:29.000Z,28.6
2019-06-10T10:12:31.000Z,28.6
2019-06-10T10:13:34.000Z,28.6
2019-06-10T10:14:44.000Z,28.6
2019-06-10T10:16:44.000Z,28.6
2019-06-10T10:17:44.000Z,28.6
2019-06-10T10:19:44.000Z,28.7
2019-06-10T10:20:44.000Z,28.7
2019-06-10T10:22:44.000Z,28.7
2019-06-10T10:24:44.000Z,28.8
2019-06-10T10:26:44.000Z,28.8
2019-06-10T10:28:44.000Z,28.8
2019-06-10T10:30:29.000Z,28.7
2019-06-10T10:32:44.000Z,28.6
2019-06-10T10:34:44.000Z,28.6
2019-06-10T10:36:44.000Z,28.6
2019-06-10T10:38:44.000Z,28.6
2019-06-10T10:40:30.000Z,28.6
2019-06-10T10:41:32.000Z,28.6
2019-06-10T10:42:44.000Z,28.6
2019-06-10T10:44:45.000Z,28.6
2019-06-10T10:45:45.000Z,28.6
2019-06-10T10:47:33.000Z,28.7
2019-06-10T10:48:45.000Z,28.7
2019-06-10T10:50:45.000Z,28.8
2019-06-10T10:52:32.000Z,28.8
2019-06-10T10:54:30.000Z,28.8
2019-06-10T10:55:45.000Z,28.8
2019-06-10T10:57:45.000Z,28.8
2019-06-10T10:59:30.000Z,28.9
2019-06-10T11:00:37.000Z,28.9
2019-06-10T11:02:30.000Z,28.9
2019-06-10T11:03:45.000Z,28.8
2019-06-10T11:05:30.000Z,28.7
2019-06-10T11:06:32.000Z,28.7
2019-06-10T11:07:33.000Z,28.7
2019-06-10T11:09:30.000Z,28.7
2019-06-10T11:10:33.000Z,28.7
2019-06-10T11:11:45.000Z,28.7
2019-06-10T11:12:45.000Z,28.7
2019-06-10T11:14:29.000Z,28.8
2019-06-10T11:15:30.000Z,28.9
2019-06-10T11:16:32.000Z,28.9
2019-06-10T11:18:45.000Z,28.9
2019-06-10T11:20:45.000Z,28.9
2019-06-10T11:21:45.000Z,29
2019-06-10T11:23:30.000Z,29
2019-06-10T11:24:40.000Z,29
2019-06-10T11:26:30.000Z,28.9
2019-06-10T11:27:33.000Z,28.9
2019-06-10T11:29:30.000Z,28.8
2019-06-10T11:30:32.000Z,28.8
2019-06-10T11:31:45.000Z,28.7
2019-06-10T11:33:30.000Z,28.7
2019-06-10T11:34:45.000Z,28.6
2019-06-10T11:36:45.000Z,28.7
2019-06-10T11:38:32.000Z,28.7
2019-06-10T11:39:45.000Z,28.7
2019-06-10T11:41:30.000Z,28.7
2019-06-10T11:42:45.000Z,28.7
2019-06-10T11:44:45.000Z,28.7
2019-06-10T11:46:29.000Z,28.7
2019-06-10T11:47:30.000Z,28.7
2019-06-10T11:48:32.000Z,28.6
2019-06-10T11:49:44.000Z,28.6
2019-06-10T11:51:44.000Z,28.8
2019-06-10T11:53:44.000Z,28.9
2019-06-10T11:55:44.000Z,28.9
2019-06-10T11:57:29.000Z,29
2019-06-10T11:58:44.000Z,28.9
2019-06-10T12:00:29.000Z,28.9
2019-06-10T12:01:30.000Z,28.9
2019-06-10T12:02:44.000Z,28.9
2019-06-10T12:04:29.000Z,29
2019-06-10T12:06:44.000Z,29
2019-06-10T12:08:29.000Z,29.1
2019-06-10T12:09:44.000Z,29
2019-06-10T12:11:44.000Z,29
2019-06-10T12:13:44.000Z,29
2019-06-10T12:15:29.000Z,29
2019-06-10T12:16:44.000Z,29
2019-06-10T12:18:44.000Z,28.9
2019-06-10T12:20:44.000Z,29
2019-06-10T12:22:44.000Z,29
2019-06-10T12:24:29.000Z,29
2019-06-10T12:25:38.000Z,29
2019-06-10T12:26:44.000Z,29
2019-06-10T12:28:29.000Z,29
2019-06-10T12:29:44.000Z,29
2019-06-10T12:31:44.000Z,29
2019-06-10T12:33:29.000Z,29.1
2019-06-10T12:34:32.000Z,29.1
2019-06-10T12:53:45.000Z,28.2
2019-06-10T12:55:03.000Z,28.3
2019-06-10T12:56:09.000Z,28.5
2019-06-10T12:58:01.000Z,28.5
2019-06-10T12:59:01.000Z,28.5
2019-06-10T13:00:16.000Z,28.5
2019-06-10T13:02:01.000Z,28.5
2019-06-10T13:03:04.000Z,28.6
2019-06-10T13:04:06.000Z,28.6
2019-06-10T13:06:06.000Z,28.6
2019-06-10T13:08:01.000Z,28.6
2019-06-10T13:09:05.000Z,28.6
2019-06-10T13:11:01.000Z,28.5
2019-06-10T13:12:03.000Z,28.5
2019-06-10T13:14:05.000Z,28.6
2019-06-10T13:15:05.000Z,28.6
2019-06-10T13:17:04.000Z,28.6
2019-06-10T13:19:05.000Z,28.6
2019-06-10T13:20:05.000Z,28.6
2019-06-10T13:21:10.000Z,28.6
2019-06-10T13:23:01.000Z,28.6
2019-06-10T13:24:04.000Z,28.6
2019-06-10T13:26:01.000Z,28.6
2019-06-10T13:27:04.000Z,28.6
2019-06-10T13:28:05.000Z,28.6
2019-06-10T13:29:06.000Z,28.6
2019-06-10T13:31:01.000Z,28.5
2019-06-10T13:32:04.000Z,28.5
2019-06-10T13:33:09.000Z,28.5
2019-06-10T13:35:01.000Z,28.5
2019-06-10T13:36:05.000Z,28.5
2019-06-10T13:38:01.000Z,28.5
2019-06-10T13:39:06.000Z,28.5
2019-06-10T13:40:07.000Z,28.5
2019-06-10T13:42:06.000Z,28.5
2019-06-10T13:44:01.000Z,28.4
2019-06-10T13:45:01.000Z,28.5
2019-06-10T13:46:05.000Z,28.5
2019-06-10T13:48:06.000Z,28.5
2019-06-10T13:49:07.000Z,28.5
2019-06-10T13:51:01.000Z,28.5
2019-06-10T13:53:04.000Z,28.4
2019-06-10T13:54:04.000Z,28.4
2019-06-10T13:55:05.000Z,28.4
2019-06-10T13:56:16.000Z,28.4
2019-06-10T13:58:02.000Z,28.4
2019-06-10T13:59:05.000Z,28.5
2019-06-10T14:01:02.000Z,28.5
2019-06-10T14:02:05.000Z,28.5
2019-06-10T14:03:08.000Z,28.5
2019-06-10T14:04:09.000Z,28.5
2019-06-10T14:05:10.000Z,28.5
2019-06-10T14:07:07.000Z,28.5
2019-06-10T14:09:02.000Z,28.5
2019-06-10T14:10:07.000Z,28.5
2019-06-10T14:12:01.000Z,28.5
2019-06-10T14:13:04.000Z,28.5
2019-06-10T14:15:02.000Z,28.4
2019-06-10T14:16:03.000Z,28.4
2019-06-10T14:18:01.000Z,28.5
2019-06-10T14:19:06.000Z,28.5
2019-06-10T14:21:02.000Z,28.5
2019-06-10T14:22:05.000Z,28.5
2019-06-10T14:24:02.000Z,28.5
2019-06-10T14:25:05.000Z,28.5
2019-06-10T14:27:05.000Z,28.5
2019-06-10T14:29:02.000Z,28.5
2019-06-10T14:30:04.000Z,28.5
2019-06-10T14:31:14.000Z,28.5
2019-06-10T14:33:02.000Z,28.5
2019-06-10T14:34:05.000Z,28.5
2019-06-10T14:36:02.000Z,28.5
2019-06-10T14:38:04.000Z,28.4
2019-06-10T14:40:02.000Z,28.4
2019-06-10T14:41:04.000Z,28.4
2019-06-10T14:42:04.000Z,28.4
2019-06-10T14:44:17.000Z,28.4
2019-06-10T14:46:17.000Z,28.5
2019-06-10T14:48:02.000Z,28.7
2019-06-10T14:49:17.000Z,28.8
2019-06-10T14:51:03.000Z,28.9
2019-06-10T14:53:01.000Z,28.9
2019-06-10T14:54:02.000Z,28.8
2019-06-10T14:56:02.000Z,28.8
2019-06-10T14:57:02.000Z,28.8
2019-06-10T14:59:01.000Z,28.8
2019-06-10T15:00:02.000Z,28.8
2019-06-10T15:02:02.000Z,28.9
2019-06-10T15:04:02.000Z,28.9
2019-06-10T15:06:02.000Z,28.9
2019-06-10T15:07:03.000Z,28.8
2019-06-10T15:09:17.000Z,28.8
2019-06-10T15:11:02.000Z,28.8
2019-06-10T15:12:02.000Z,28.8
2019-06-10T15:13:17.000Z,28.8
2019-06-10T15:15:17.000Z,28.9
2019-06-10T15:17:02.000Z,29
2019-06-10T15:19:16.000Z,29
2019-06-10T15:21:02.000Z,28.9
2019-06-10T15:22:02.000Z,29
2019-06-10T15:23:17.000Z,29
2019-06-10T15:25:02.000Z,28.9
2019-06-10T15:26:02.000Z,29
2019-06-10T15:28:02.000Z,29
2019-06-10T15:29:02.000Z,29
2019-06-10T15:30:11.000Z,29
2019-06-10T15:32:02.000Z,29
2019-06-10T15:33:02.000Z,29
2019-06-10T15:34:02.000Z,29
2019-06-10T15:35:03.000Z,29
2019-06-10T15:36:17.000Z,29.1
2019-06-10T15:38:03.000Z,29.2
2019-06-10T15:39:17.000Z,29.3
2019-06-10T15:41:17.000Z,29.4
2019-06-10T15:43:02.000Z,29.4
2019-06-10T15:44:17.000Z,29.3
2019-06-10T15:46:02.000Z,29.3
2019-06-10T15:47:02.000Z,29.3
2019-06-10T15:48:17.000Z,29.3
2019-06-10T15:50:02.000Z,29.4
2019-06-10T15:51:02.000Z,29.4
2019-06-10T15:53:02.000Z,29.4
2019-06-10T15:54:17.000Z,29.4
2019-06-10T15:56:02.000Z,29.4
2019-06-10T15:57:03.000Z,29.4
2019-06-10T15:58:17.000Z,29.4
2019-06-10T16:00:02.000Z,29.4
2019-06-10T16:01:02.000Z,29.4
2019-06-10T16:03:17.000Z,29.3
2019-06-10T16:04:17.000Z,29.3
2019-06-10T16:06:02.000Z,29.3
2019-06-10T16:07:02.000Z,29.3
2019-06-10T16:08:17.000Z,29.2
2019-06-10T16:10:02.000Z,29.3
2019-06-10T16:11:03.000Z,29.3
2019-06-10T16:13:03.000Z,29.3
2019-06-10T16:15:02.000Z,29.3
2019-06-10T16:16:03.000Z,29.3
2019-06-10T16:18:02.000Z,29.4
2019-06-10T16:19:17.000Z,29.4
2019-06-10T16:21:02.000Z,29.4
2019-06-10T16:22:03.000Z,29.4
2019-06-10T16:24:02.000Z,29.3
2019-06-10T16:26:02.000Z,29.3
2019-06-10T16:28:02.000Z,29.3
2019-06-10T16:29:02.000Z,29.3
2019-06-10T16:31:03.000Z,29.4
2019-06-10T16:33:02.000Z,29.4
2019-06-10T16:34:04.000Z,29.4
2019-06-10T16:36:02.000Z,29.4
2019-06-10T16:38:17.000Z,29.3
2019-06-10T16:40:02.000Z,29.3
2019-06-10T16:41:03.000Z,29.2
2019-06-10T16:43:17.000Z,29.1
2019-06-10T16:45:17.000Z,29.2
2019-06-10T16:47:03.000Z,29.1
2019-06-10T16:48:17.000Z,29.1
2019-06-10T16:50:02.000Z,29.2
2019-06-10T16:51:03.000Z,29.1
2019-06-10T16:53:02.000Z,29.1
2019-06-10T16:54:17.000Z,29.1
2019-06-10T16:55:17.000Z,29.1
2019-06-10T16:57:02.000Z,29.3
2019-06-10T16:58:02.000Z,29.2
2019-06-10T17:00:02.000Z,29.2
2019-06-10T17:01:03.000Z,29.2
2019-06-10T17:02:17.000Z,29.1
2019-06-10T17:04:17.000Z,29.1
2019-06-10T17:06:17.000Z,29.1
2019-06-10T17:07:17.000Z,29.2
2019-06-10T17:09:02.000Z,29.3
2019-06-10T17:11:03.000Z,29.2
2019-06-10T17:13:02.000Z,29.2
2019-06-10T17:14:02.000Z,29.2
2019-06-10T17:15:02.000Z,29.1
2019-06-10T17:17:02.000Z,29.2
2019-06-10T17:19:16.000Z,29.1
2019-06-10T17:21:01.000Z,29.1
2019-06-10T17:22:16.000Z,29
2019-06-10T17:24:01.000Z,29
2019-06-10T17:25:16.000Z,28.9
2019-06-10T17:27:01.000Z,29
2019-06-10T17:28:16.000Z,29
2019-06-10T17:30:01.000Z,29.1
2019-06-10T17:31:03.000Z,29.1
2019-06-10T17:33:16.000Z,29.1
2019-06-10T17:35:01.000Z,29.1
2019-06-10T17:36:01.000Z,29.2
2019-06-10T17:38:01.000Z,29.1
2019-06-10T17:39:01.000Z,29.2
2019-06-10T17:40:01.000Z,29.2
2019-06-10T17:42:01.000Z,29.2
2019-06-10T17:43:16.000Z,29.3
2019-06-10T17:45:16.000Z,29.4
2019-06-10T17:47:01.000Z,29.5
2019-06-10T17:48:01.000Z,29.5
2019-06-10T17:49:16.000Z,29.5
2019-06-10T17:51:01.000Z,29.5
2019-06-10T17:52:16.000Z,29.6
2019-06-10T17:54:16.000Z,29.6
2019-06-10T17:56:02.000Z,29.7
2019-06-10T17:57:16.000Z,29.7
2019-06-10T17:59:01.000Z,29.7
2019-06-10T18:00:10.000Z,29.6
2019-06-10T18:02:02.000Z,29.5
2019-06-10T18:04:16.000Z,29.4
2019-06-10T18:06:01.000Z,29.4
2019-06-10T18:07:16.000Z,29.4
2019-06-10T18:09:01.000Z,29.5
2019-06-10T18:10:02.000Z,29.5
2019-06-10T18:12:16.000Z,29.5
2019-06-10T18:14:01.000Z,29.5
2019-06-10T18:15:01.000Z,29.5
2019-06-10T18:16:02.000Z,29.5
2019-06-10T18:17:16.000Z,29.5
2019-06-10T18:19:01.000Z,29.5
2019-06-10T18:20:02.000Z,29.5
2019-06-10T18:22:02.000Z,29.4
2019-06-10T18:24:01.000Z,29.4
2019-06-10T18:25:02.000Z,29.3
2019-06-10T18:27:16.000Z,29.3
2019-06-10T18:29:07.000Z,29.3
2019-06-10T18:30:09.000Z,29.2
2019-06-10T18:32:02.000Z,29.1
2019-06-10T18:34:16.000Z,29.1
2019-06-10T18:36:01.000Z,29.1
2019-06-10T18:37:01.000Z,29.1
2019-06-10T18:38:16.000Z,29.2
2019-06-10T18:40:02.000Z,29.3
2019-06-10T18:42:02.000Z,29.3
2019-06-10T18:44:16.000Z,29.3
2019-06-10T18:46:01.000Z,29.2
2019-06-10T18:47:02.000Z,29.1
2019-06-10T18:48:16.000Z,29.1
2019-06-10T18:50:16.000Z,29.2
2019-06-10T18:51:16.000Z,29.2
2019-06-10T18:53:01.000Z,29.3
2019-06-10T18:54:16.000Z,29.2
2019-06-10T18:56:16.000Z,29.2
2019-06-10T18:58:16.000Z,29.2
2019-06-10T19:00:09.000Z,29.1
2019-06-10T19:02:05.000Z,29
2019-06-10T19:04:02.000Z,29
2019-06-10T19:06:16.000Z,28.9
2019-06-10T19:08:16.000Z,29
2019-06-10T19:10:16.000Z,29
2019-06-10T19:12:02.000Z,29
2019-06-10T19:13:16.000Z,29
2019-06-10T19:15:01.000Z,29.1
2019-06-10T19:16:16.000Z,29.1
2019-06-10T19:18:01.000Z,29.2
2019-06-10T19:19:01.000Z,29.2
2019-06-10T19:21:01.000Z,29.2
2019-06-10T19:22:08.000Z,29.1
2019-06-10T19:23:16.000Z,29
2019-06-10T19:25:02.000Z,29
2019-06-10T19:26:03.000Z,29
2019-06-10T19:28:17.000Z,28.9
2019-06-10T19:30:17.000Z,29
2019-06-10T19:32:03.000Z,29
2019-06-10T19:33:17.000Z,29
2019-06-10T19:35:02.000Z,29
2019-06-10T19:36:17.000Z,28.9
2019-06-10T19:37:17.000Z,29
2019-06-10T19:38:17.000Z,29
2019-06-10T19:40:17.000Z,29.1
2019-06-10T19:42:02.000Z,29.2
2019-06-10T19:43:02.000Z,29.2
2019-06-10T19:44:17.000Z,29.1
2019-06-10T19:46:02.000Z,29.1
2019-06-10T19:47:17.000Z,29
2019-06-10T19:49:02.000Z,29
2019-06-10T19:50:03.000Z,28.9
2019-06-10T19:52:03.000Z,28.9
2019-06-10T19:54:03.000Z,28.9
2019-06-10T19:55:17.000Z,29
2019-06-10T19:56:17.000Z,29
2019-06-10T19:58:02.000Z,29.1
2019-06-10T19:59:17.000Z,29.1
2019-06-10T20:01:17.000Z,29.1
2019-06-10T20:03:02.000Z,29.1
2019-06-10T20:04:02.000Z,29
2019-06-10T20:05:17.000Z,29
2019-06-10T20:07:17.000Z,29
2019-06-10T20:09:02.000Z,29
2019-06-10T20:10:02.000Z,29
2019-06-10T20:11:02.000Z,29.1
2019-06-10T20:12:17.000Z,29.1
2019-06-10T20:14:17.000Z,29.1
2019-06-10T20:16:03.000Z,29.1
2019-06-10T20:18:03.000Z,29.1
2019-06-10T20:20:02.000Z,29
2019-06-10T20:22:17.000Z,29
2019-06-10T20:24:02.000Z,29
2019-06-10T20:26:17.000Z,28.9
2019-06-10T20:28:02.000Z,28.9
2019-06-10T20:30:09.000Z,28.9
2019-06-10T20:31:16.000Z,28.9
2019-06-10T20:32:16.000Z,29
2019-06-10T20:34:02.000Z,29
2019-06-10T20:35:02.000Z,29
2019-06-10T20:37:04.000Z,29
2019-06-10T20:38:04.000Z,29
2019-06-10T20:39:16.000Z,29
2019-06-10T20:41:02.000Z,29
2019-06-10T20:43:02.000Z,29
2019-06-10T20:45:02.000Z,29
2019-06-10T20:46:05.000Z,29
2019-06-10T20:47:16.000Z,28.9
2019-06-10T20:49:02.000Z,28.9
2019-06-10T20:50:02.000Z,28.9
2019-06-10T20:52:10.000Z,28.8
2019-06-10T20:53:13.000Z,28.8
2019-06-10T20:55:02.000Z,28.7
2019-06-10T20:57:01.000Z,28.7
2019-06-10T20:58:02.000Z,28.7
2019-06-10T21:00:02.000Z,28.6
2019-06-10T21:01:04.000Z,28.6
2019-06-10T21:03:02.000Z,28.5
2019-06-10T21:04:03.000Z,28.5
2019-06-10T21:06:01.000Z,28.5
2019-06-10T21:07:16.000Z,28.5
2019-06-10T21:09:01.000Z,28.6
2019-06-10T21:10:02.000Z,28.6
2019-06-10T21:11:02.000Z,28.7
2019-06-10T21:12:16.000Z,28.7
2019-06-10T21:14:02.000Z,28.8
2019-06-10T21:15:17.000Z,28.9
2019-06-10T21:17:02.000Z,28.9
2019-06-10T21:18:16.000Z,28.9
2019-06-10T21:20:02.000Z,29
2019-06-10T21:21:16.000Z,28.9
2019-06-10T21:23:02.000Z,28.9
2019-06-10T21:24:16.000Z,29